This is the latest recevied weather packets stored in our database for station/object K6CED. If no packets are shown the sender has not sent any weather packets the latest 10 day(s).
| Time | Temp. | Humidity | Pressure | Rain* | Wind** | Luminosity | Snow |
|---|---|---|---|---|---|---|---|
| 1788105437 | 25.56° C | 70% | 1015.6 hPa | 0 mm | - | 208 W/m² | - |
| 1788105132 | 25.56° C | 69% | 1015.7 hPa | 0 mm | - | 396 W/m² | - |
| 1788104827 | 25° C | 71% | 1015.6 hPa | 0 mm | - | 380 W/m² | - |
| 1788104523 | 25° C | 73% | 1015.6 hPa | 0 mm | - | 360 W/m² | - |
| 1788104220 | 24.44° C | 73% | 1015.4 hPa | 0 mm | - | 341 W/m² | - |
| 1788103920 | 24.44° C | 73% | 1015.6 hPa | 0 mm | - | 320 W/m² | - |
| 1788103618 | 24.44° C | 74% | 1015.7 hPa | 0 mm | - | 301 W/m² | - |
| 1788103318 | 24.44° C | 74% | 1015.8 hPa | 0 mm | - | 283 W/m² | - |
| 1788103013 | 23.89° C | 74% | 1015.8 hPa | 0 mm | - | 258 W/m² | - |
| 1788102712 | 23.89° C | 73% | 1015.9 hPa | 0 mm | - | 241 W/m² | - |
| 1788102407 | 23.89° C | 72% | 1015.8 hPa | 0 mm | - | 220 W/m² | - |
| 1788102102 | 24.44° C | 70% | 1015.7 hPa | 0 mm | - | 203 W/m² | - |
| 1788101801 | 24.44° C | 68% | 1015.8 hPa | 0 mm | - | 190 W/m² | - |
| 1788101497 | 25° C | 67% | 1015.6 hPa | 0 mm | - | 176 W/m² | - |
| 1788101192 | 23.89° C | 70% | 1015.7 hPa | 0 mm | - | 162 W/m² | - |
| 1788100888 | 22.22° C | 74% | 1015.6 hPa | 0 mm | - | 146 W/m² | - |
| 1788100584 | 22.22° C | 74% | 1015.4 hPa | 0 mm | - | 130 W/m² | - |
| 1788100282 | 21.67° C | 75% | 1015.6 hPa | 0 mm | - | 117 W/m² | - |
| 1788099978 | 21.11° C | 77% | 1015.8 hPa | 0 mm | - | 98 W/m² | - |
| 1788099672 | 20.56° C | 80% | 1015.7 hPa | 0 mm | - | 88 W/m² | - |
| 1788099368 | 19.44° C | 81% | 1015.5 hPa | 0 mm | - | 64 W/m² | - |
| 1788099063 | 19.44° C | 81% | 1015.8 hPa | 0 mm | - | 42 W/m² | - |
| 1788098756 | 19.44° C | 81% | 1015.8 hPa | 0 mm | - | 41 W/m² | - |
| 1788098452 | 18.89° C | 81% | 1015.7 hPa | 0 mm | - | 48 W/m² | - |
| 1788098147 | 18.33° C | 83% | 1015.6 hPa | 0 mm | - | 30 W/m² | - |
* Rain latest hour (hover to see other rain measurements)
** Current wind speed in m/s (hover to see current wind gust speed)